Time;durP1;ratioP1;P1;durP2;ratioP2;P2;SDS_P1;SDS_P2;PMS_P1;PMS_P2;Temp;Humidity;BMP_temperature;BMP_pressure;BME280_temperature;BME280_humidity;BME280_pressure;Samples;Min_cycle;Max_cycle;Signal;HPM_P1;HPM_P2
2023/06/27 04:30:38;;;;;;;;;2.00;2.00;;;;;26.17;35.30;101883.84;5087676;27;45602;-76
2023/06/27 04:33:04;;;;;;;;;3.50;1.75;;;;;26.10;35.74;101885.44;5032603;28;45398;-75
2023/06/27 04:35:31;;;;;;;;;2.50;1.00;;;;;26.05;35.58;101876.75;5014133;28;45205;-77
2023/06/27 04:37:56;;;;;;;;;1.00;1.00;;;;;26.10;35.70;101880.81;5029511;28;45233;-77
2023/06/27 04:40:22;;;;;;;;;2.00;2.00;;;;;26.19;35.04;101879.09;5034060;28;45613;-77
2023/06/27 04:42:47;;;;;;;;;2.00;2.00;;;;;26.27;34.98;101876.50;5033890;28;45575;-76
2023/06/27 04:45:12;;;;;;;;;1.00;1.00;;;;;26.39;35.17;101864.34;5023462;28;56108;-74
2023/06/27 04:47:38;;;;;;;;;0.00;0.00;;;;;26.54;35.08;101870.28;5026461;28;45345;-75
2023/06/27 04:50:04;;;;;;;;;2.50;2.50;;;;;26.52;35.23;101866.81;5033998;28;45302;-74
2023/06/27 04:52:29;;;;;;;;;3.00;3.00;;;;;26.49;34.95;101859.69;5033807;28;45569;-80
2023/06/27 04:54:55;;;;;;;;;2.50;2.50;;;;;26.54;34.91;101864.78;5034869;28;46324;-74
2023/06/27 04:57:20;;;;;;;;;4.00;2.50;;;;;26.43;35.35;101867.69;5037527;28;45343;-77
2023/06/27 04:59:45;;;;;;;;;2.00;2.00;;;;;26.27;35.40;101860.88;5038082;28;45423;-77
2023/06/27 05:02:11;;;;;;;;;2.75;1.75;;;;;26.33;35.47;101860.31;5037979;28;45412;-76
2023/06/27 05:04:36;;;;;;;;;3.25;2.00;;;;;26.30;35.81;101863.31;5037287;28;45443;-75
2023/06/27 05:07:04;;;;;;;;;2.75;2.75;;;;;26.40;35.54;101856.97;5038284;28;45376;-77
2023/06/27 05:09:30;;;;;;;;;2.75;2.75;;;;;26.31;35.74;101859.56;5037807;28;45563;-75
2023/06/27 05:11:55;;;;;;;;;3.25;3.25;;;;;26.14;36.39;101865.75;5036906;28;45324;-76
2023/06/27 05:14:20;;;;;;;;;2.25;1.25;;;;;26.31;35.88;101862.31;5037110;28;45370;-76
2023/06/27 05:16:46;;;;;;;;;4.50;2.50;;;;;26.41;36.13;101869.69;5037337;28;45384;-77
2023/06/27 05:19:11;;;;;;;;;3.75;3.75;;;;;26.29;36.29;101866.22;5037158;28;45635;-78
2023/06/27 05:21:36;;;;;;;;;3.50;1.75;;;;;26.48;35.93;101874.47;5037373;28;45320;-79
2023/06/27 05:24:05;;;;;;;;;2.75;2.00;;;;;26.41;36.06;101870.56;5018832;28;45559;-78
2023/06/27 05:26:32;;;;;;;;;2.75;2.75;;;;;26.41;36.28;101878.81;5036578;28;45434;-77
2023/06/27 05:28:58;;;;;;;;;1.25;1.25;;;;;26.55;35.88;101875.63;5036722;28;45350;-77
2023/06/27 05:31:23;;;;;;;;;4.00;4.00;;;;;26.65;36.10;101881.09;5044100;28;45536;-78
2023/06/27 05:33:49;;;;;;;;;3.00;2.00;;;;;26.46;36.76;101870.13;5054193;28;50963;-75
2023/06/27 05:36:14;;;;;;;;;5.50;3.75;;;;;26.37;36.27;101866.34;5046729;28;45346;-76
2023/06/27 05:38:39;;;;;;;;;4.50;3.00;;;;;26.60;36.21;101881.56;5037034;28;45292;-74
2023/06/27 05:41:05;;;;;;;;;4.00;3.75;;;;;26.56;36.88;101887.47;5036691;28;45653;-72
2023/06/27 05:43:30;;;;;;;;;2.00;2.00;;;;;26.66;36.54;101882.84;5034620;28;45538;-79
2023/06/27 05:45:55;;;;;;;;;2.75;2.75;;;;;26.72;36.80;101876.75;5022172;28;45339;-75
2023/06/27 05:48:21;;;;;;;;;4.50;3.00;;;;;26.76;37.10;101875.44;5036829;28;45312;-75
2023/06/27 05:50:46;;;;;;;;;6.50;2.50;;;;;26.72;37.04;101874.00;5036586;28;45647;-74
2023/06/27 05:53:12;;;;;;;;;0.75;0.75;;;;;26.74;37.14;101863.72;5037054;28;45386;-77
2023/06/27 05:55:37;;;;;;;;;7.50;2.00;;;;;26.86;36.93;101868.03;5036970;28;45517;-75
2023/06/27 05:58:03;;;;;;;;;3.50;3.50;;;;;26.69;36.96;101849.56;5036886;28;45218;-78
2023/06/27 06:00:28;;;;;;;;;5.00;3.75;;;;;26.91;37.09;101862.97;5036762;28;45348;-76
2023/06/27 06:02:53;;;;;;;;;3.25;2.25;;;;;26.87;37.21;101863.41;5018386;28;47324;-76
2023/06/27 06:05:19;;;;;;;;;4.50;2.75;;;;;26.91;37.36;101862.13;5036324;28;45470;-76
2023/06/27 06:07:44;;;;;;;;;5.00;2.00;;;;;27.03;37.11;101871.94;5044897;28;45627;-76
2023/06/27 06:10:11;;;;;;;;;4.33;1.67;;;;;26.99;36.84;101865.84;5054211;28;45515;-76
2023/06/27 06:12:37;;;;;;;;;2.50;2.50;;;;;27.14;36.98;101866.22;5036332;28;45407;-76
2023/06/27 06:15:03;;;;;;;;;2.25;2.00;;;;;27.25;36.59;101856.91;5051777;28;45696;-76
2023/06/27 06:17:28;;;;;;;;;2.00;2.00;;;;;27.16;36.78;101863.31;5029241;28;45269;-77
2023/06/27 06:19:54;;;;;;;;;3.00;1.75;;;;;27.22;37.15;101873.75;5050135;28;45487;-77
2023/06/27 06:22:19;;;;;;;;;2.75;2.75;;;;;27.28;36.72;101864.88;5055215;28;46050;-76
2023/06/27 06:24:45;;;;;;;;;4.00;2.50;;;;;27.19;37.14;101874.91;5054772;28;45231;-76
2023/06/27 06:27:10;;;;;;;;;3.50;1.75;;;;;27.25;36.92;101857.78;5056251;28;45356;-77
2023/06/27 06:29:35;;;;;;;;;2.25;1.25;;;;;27.39;36.53;101865.53;5055131;28;45457;-76
2023/06/27 06:32:01;;;;;;;;;1.50;1.50;;;;;27.41;36.61;101866.25;5042539;28;45482;-77
2023/06/27 06:34:26;;;;;;;;;5.50;2.50;;;;;27.25;37.05;101843.16;5035568;28;45474;-78
2023/06/27 06:36:51;;;;;;;;;1.50;1.50;;;;;27.57;36.60;101862.00;5036695;28;45442;-77
2023/06/27 06:39:17;;;;;;;;;2.00;1.50;;;;;27.64;36.24;101875.03;5035677;28;48595;-76
2023/06/27 06:41:42;;;;;;;;;5.25;2.50;;;;;27.67;36.54;101887.63;5035913;28;45629;-77
2023/06/27 06:44:07;;;;;;;;;2.00;2.00;;;;;27.71;36.76;101878.91;5035393;28;48191;-78
2023/06/27 06:46:35;;;;;;;;;2.00;2.00;;;;;27.66;36.57;101866.59;5036116;28;45248;-77
2023/06/27 06:49:00;;;;;;;;;1.50;1.50;;;;;27.55;36.25;101878.72;5035266;28;45467;-78
2023/06/27 06:51:26;;;;;;;;;6.25;3.50;;;;;27.58;36.81;101869.25;5035806;28;45295;-76
2023/06/27 06:53:51;;;;;;;;;2.25;2.25;;;;;27.53;36.51;101869.69;5036264;28;45320;-76
2023/06/27 06:56:16;;;;;;;;;1.25;1.25;;;;;27.64;36.64;101869.53;5036198;28;45356;-77
2023/06/27 06:58:42;;;;;;;;;1.50;1.50;;;;;27.78;36.47;101876.41;5035931;28;45253;-77
2023/06/27 07:01:07;;;;;;;;;5.25;3.75;;;;;27.69;36.79;101871.81;5017231;28;48031;-76
2023/06/27 07:03:33;;;;;;;;;2.50;1.75;;;;;27.88;36.22;101884.59;5035362;28;45377;-78
2023/06/27 07:05:59;;;;;;;;;3.50;3.50;;;;;28.06;36.09;101872.59;5035497;28;45375;-77
2023/06/27 07:08:25;;;;;;;;;2.50;2.50;;;;;28.19;36.17;101881.34;5035353;28;45516;-77
2023/06/27 07:10:50;;;;;;;;;3.00;3.00;;;;;28.30;35.77;101879.38;5034859;28;46050;-77
2023/06/27 07:13:16;;;;;;;;;2.00;1.75;;;;;28.34;35.76;101869.75;5035619;28;45394;-76
2023/06/27 07:15:41;;;;;;;;;3.50;1.75;;;;;28.34;35.31;101862.34;5035254;28;45465;-77
2023/06/27 07:18:06;;;;;;;;;5.25;4.50;;;;;28.32;35.13;101874.59;5016884;28;45515;-77
2023/06/27 07:20:32;;;;;;;;;3.75;2.00;;;;;27.88;36.02;101866.19;5034945;28;46066;-76
2023/06/27 07:22:57;;;;;;;;;2.75;2.00;;;;;27.77;35.83;101882.94;5035934;28;45382;-76
2023/06/27 07:25:23;;;;;;;;;5.50;2.50;;;;;27.57;36.39;101873.88;5018125;28;45277;-78
2023/06/27 07:27:49;;;;;;;;;1.50;1.50;;;;;27.74;36.21;101895.13;5036550;28;46190;-77
2023/06/27 07:30:15;;;;;;;;;1.75;1.50;;;;;27.75;36.01;101891.34;5019121;28;47319;-77
2023/06/27 07:32:41;;;;;;;;;4.75;2.25;;;;;27.81;36.29;101884.38;5056133;28;45518;-78
2023/06/27 07:35:07;;;;;;;;;1.75;1.75;;;;;27.75;36.65;101884.97;5019559;28;45562;-76
2023/06/27 07:37:32;;;;;;;;;3.00;3.00;;;;;27.84;36.39;101878.53;5046183;28;45578;-77
2023/06/27 07:39:58;;;;;;;;;2.75;2.00;;;;;27.89;36.47;101881.69;5041632;28;47023;-77
2023/06/27 07:42:24;;;;;;;;;4.00;4.00;;;;;27.94;36.00;101887.59;5048624;28;45643;-77
2023/06/27 07:44:49;;;;;;;;;3.50;3.00;;;;;28.06;36.36;101889.13;5041285;28;45431;-78
2023/06/27 07:47:15;;;;;;;;;3.00;3.00;;;;;28.09;36.39;101885.16;5055375;28;45306;-78
2023/06/27 07:49:40;;;;;;;;;11.00;3.00;;;;;28.32;35.82;101885.63;5055045;28;46189;-78
2023/06/27 07:52:07;;;;;;;;;3.75;2.75;;;;;28.38;35.61;101879.47;5055645;28;45390;-75
2023/06/27 07:54:33;;;;;;;;;3.75;3.75;;;;;28.58;36.03;101889.31;5047096;28;45348;-77
2023/06/27 07:56:58;;;;;;;;;3.50;2.75;;;;;28.71;34.94;101881.47;5054989;28;45527;-76
2023/06/27 07:59:23;;;;;;;;;2.00;2.00;;;;;28.76;34.85;101873.59;5055848;28;46249;-74
2023/06/27 08:01:49;;;;;;;;;3.75;3.75;;;;;28.89;35.09;101893.38;5055347;28;45335;-76
2023/06/27 08:04:17;;;;;;;;;0.50;0.50;;;;;28.91;34.68;101894.09;5055175;28;45328;-77
2023/06/27 08:06:43;;;;;;;;;2.50;2.50;;;;;28.78;34.60;101871.53;5055284;28;45340;-74
2023/06/27 08:09:08;;;;;;;;;1.00;1.00;;;;;28.84;33.97;101887.44;5055250;28;45368;-77
2023/06/27 08:11:34;;;;;;;;;6.75;2.25;;;;;28.71;33.97;101895.25;5055917;28;45464;-78
2023/06/27 08:14:01;;;;;;;;;6.00;3.00;;;;;28.74;33.96;101883.03;5055735;28;45357;-77
2023/06/27 08:16:26;;;;;;;;;5.25;3.50;;;;;28.78;33.63;101887.22;5056254;28;45326;-77
2023/06/27 08:18:51;;;;;;;;;0.50;0.50;;;;;28.88;34.44;101876.97;5036880;28;47407;-76
2023/06/27 08:21:17;;;;;;;;;3.25;2.25;;;;;28.79;34.26;101873.28;5055902;28;45226;-78
2023/06/27 08:23:42;;;;;;;;;4.75;2.75;;;;;28.64;34.91;101874.84;5055042;28;45329;-77
2023/06/27 08:26:08;;;;;;;;;3.00;3.00;;;;;28.75;34.30;101857.19;5054726;28;45216;-75
2023/06/27 08:28:33;;;;;;;;;2.00;1.75;;;;;28.95;34.00;101869.75;5054581;28;46318;-77
2023/06/27 08:30:58;;;;;;;;;4.25;1.00;;;;;29.08;33.17;101872.97;5053944;28;45327;-77
2023/06/27 08:33:25;;;;;;;;;3.50;2.75;;;;;29.21;33.27;101876.13;5031875;28;45511;-77
2023/06/27 08:35:50;;;;;;;;;3.00;2.00;;;;;29.30;32.49;101858.56;5034330;28;45404;-77
2023/06/27 08:38:17;;;;;;;;;2.50;1.25;;;;;29.37;32.40;101855.16;5052696;28;45453;-78
2023/06/27 08:40:44;;;;;;;;;3.00;2.50;;;;;29.39;32.74;101861.41;5054686;28;45534;-77
2023/06/27 08:43:10;;;;;;;;;3.00;2.25;;;;;29.34;32.58;101846.16;5040198;28;45361;-76
2023/06/27 08:45:39;;;;;;;;;2.00;2.00;;;;;29.37;32.73;101861.56;5047567;28;45365;-77
2023/06/27 08:48:10;;;;;;;;;2.00;2.00;;;;;29.29;31.92;101855.97;5054618;28;46973;-77
2023/06/27 08:50:39;;;;;;;;;1.50;1.50;;;;;29.37;32.68;101860.69;5046714;28;45336;-78
2023/06/27 08:53:08;;;;;;;;;4.50;3.00;;;;;29.39;31.65;101848.44;5054829;28;45387;-77
2023/06/27 08:55:44;;;;;;;;;1.00;1.00;;;;;29.59;31.64;101852.69;5045864;28;45413;-77
2023/06/27 08:58:15;;;;;;;;;2.50;2.50;;;;;29.72;31.30;101853.06;5053970;28;46276;-78
2023/06/27 09:00:42;;;;;;;;;4.75;3.00;;;;;29.70;31.25;101846.84;5053963;28;45441;-77
2023/06/27 09:03:08;;;;;;;;;1.50;1.50;;;;;29.60;31.02;101835.03;5054365;28;45329;-78
2023/06/27 09:05:34;;;;;;;;;2.00;2.00;;;;;29.62;31.72;101848.69;5053733;28;45774;-77
2023/06/27 09:07:59;;;;;;;;;3.00;1.75;;;;;29.54;30.85;101821.03;5053863;28;46061;-76
2023/06/27 09:10:25;;;;;;;;;1.50;1.50;;;;;29.63;30.63;101842.16;5053618;28;45327;-76
2023/06/27 09:12:53;;;;;;;;;3.00;1.50;;;;;29.60;30.41;101832.28;5054264;28;45378;-75
2023/06/27 09:15:19;;;;;;;;;0.50;0.50;;;;;29.64;29.93;101832.81;5053507;28;45524;-76
2023/06/27 09:17:44;;;;;;;;;2.75;1.50;;;;;29.77;29.50;101833.22;5053600;28;45319;-75
2023/06/27 09:20:15;;;;;;;;;3.75;2.00;;;;;29.76;29.77;101831.50;5053130;28;45367;-77
2023/06/27 09:22:41;;;;;;;;;1.75;1.75;;;;;29.78;29.66;101831.28;5054011;28;45440;-78
2023/06/27 09:25:15;;;;;;;;;5.50;1.00;;;;;29.90;29.62;101824.41;5053342;28;45531;-76
2023/06/27 09:27:41;;;;;;;;;2.50;1.25;;;;;29.95;29.58;101827.56;5036097;28;47748;-77
2023/06/27 09:30:11;;;;;;;;;2.00;2.00;;;;;30.09;28.91;101822.25;5053558;28;45434;-77
2023/06/27 09:32:55;;;;;;;;;1.25;1.25;;;;;30.09;28.52;101813.94;5055339;28;45475;-76
2023/06/27 09:35:21;;;;;;;;;4.00;1.50;;;;;30.12;28.27;101811.84;5031803;28;45573;-77
2023/06/27 09:37:47;;;;;;;;;3.00;1.25;;;;;30.17;28.44;101798.38;5053766;28;45867;-78
2023/06/27 09:40:20;;;;;;;;;4.75;2.25;;;;;30.35;28.25;101788.88;5054862;28;45290;-78
2023/06/27 09:42:50;;;;;;;;;2.00;2.00;;;;;30.60;28.37;101799.94;5046026;28;45391;-78
2023/06/27 09:45:16;;;;;;;;;2.50;1.50;;;;;30.73;28.76;101783.66;5047457;28;45241;-75
2023/06/27 09:47:42;;;;;;;;;2.75;2.75;;;;;30.87;27.37;101794.00;5034645;28;46137;-77
2023/06/27 09:50:08;;;;;;;;;6.25;1.50;;;;;30.79;27.11;101781.03;5037087;28;45261;-81
2023/06/27 09:52:33;;;;;;;;;2.50;1.75;;;;;30.73;27.87;101789.19;5040339;28;45189;-81
2023/06/27 09:54:59;;;;;;;;;0.75;0.75;;;;;30.59;27.58;101793.53;5056749;28;45366;-82
2023/06/27 09:57:26;;;;;;;;;1.00;1.00;;;;;30.53;28.13;101793.41;5057250;28;45300;-85
2023/06/27 09:59:58;;;;;;;;;4.25;2.25;;;;;30.55;28.23;101792.16;5056825;28;45505;-81
2023/06/27 10:02:28;;;;;;;;;2.75;1.75;;;;;30.57;27.19;101780.91;5038792;28;45283;-78
2023/06/27 10:04:53;;;;;;;;;2.00;2.00;;;;;30.58;27.21;101783.50;5056173;28;45579;-79
2023/06/27 10:07:20;;;;;;;;;4.00;3.00;;;;;30.45;28.01;101769.34;5038174;28;48071;-83
2023/06/27 10:09:46;;;;;;;;;2.50;1.75;;;;;30.63;27.75;101772.75;5057282;28;45297;-79
2023/06/27 10:12:14;;;;;;;;;2.50;1.00;;;;;30.76;27.08;101788.84;5056385;28;45275;-80
2023/06/27 10:14:39;;;;;;;;;3.50;2.50;;;;;30.71;26.86;101783.81;5038833;28;46199;-75
2023/06/27 10:17:05;;;;;;;;;1.25;1.25;;;;;30.73;27.77;101776.19;5056137;28;46129;-74
2023/06/27 10:19:31;;;;;;;;;4.25;1.75;;;;;30.71;26.92;101777.44;5056103;28;45374;-75
2023/06/27 10:22:00;;;;;;;;;2.00;1.75;;;;;30.66;27.09;101777.09;5056087;28;45315;-75
2023/06/27 10:24:28;;;;;;;;;3.00;2.00;;;;;30.65;27.60;101773.47;5056002;28;45996;-75
2023/06/27 10:26:56;;;;;;;;;1.75;1.75;;;;;30.78;27.92;101778.47;5055669;28;46447;-73
2023/06/27 10:29:23;;;;;;;;;4.00;2.00;;;;;30.86;27.54;101772.91;5036748;28;45530;-77
2023/06/27 10:31:50;;;;;;;;;2.25;2.00;;;;;30.87;27.19;101766.31;5032470;28;45698;-78
2023/06/27 10:34:20;;;;;;;;;3.75;2.50;;;;;31.02;26.93;101769.19;5013384;28;46465;-74
2023/06/27 10:36:55;;;;;;;;;3.25;2.00;;;;;31.07;27.13;101766.78;5030331;28;46189;-76
2023/06/27 10:39:26;;;;;;;;;1.75;1.75;;;;;31.16;27.25;101782.31;5027286;28;45359;-72
2023/06/27 10:41:58;;;;;;;;;2.00;1.50;;;;;30.92;25.86;101776.84;5032353;28;45517;-74
2023/06/27 10:44:24;;;;;;;;;2.50;2.25;;;;;30.68;26.15;101769.47;5035057;28;45594;-74
2023/06/27 10:47:15;;;;;;;;;1.25;1.00;;;;;30.81;25.88;101773.41;5035721;28;45352;-75
2023/06/27 10:49:40;;;;;;;;;3.00;2.00;;;;;30.95;25.83;101777.38;5035489;28;45299;-75
2023/06/27 10:52:05;;;;;;;;;4.25;1.75;;;;;31.07;26.33;101767.66;5034580;28;45722;-75
2023/06/27 10:54:31;;;;;;;;;3.50;1.50;;;;;31.20;25.97;101769.84;5034743;28;45288;-78
2023/06/27 10:56:59;;;;;;;;;1.25;1.25;;;;;31.18;25.66;101774.72;5035072;28;46073;-75
2023/06/27 10:59:26;;;;;;;;;2.75;2.75;;;;;31.24;25.83;101784.19;5034850;28;45434;-75
2023/06/27 11:02:04;;;;;;;;;2.50;1.50;;;;;31.29;25.39;101784.53;5035324;28;45498;-75
2023/06/27 11:04:42;;;;;;;;;1.25;1.25;;;;;31.42;25.48;101785.66;5034876;28;45521;-75
2023/06/27 11:07:10;;;;;;;;;2.00;2.00;;;;;31.60;25.33;101779.84;5035242;28;45941;-76
2023/06/27 11:09:37;;;;;;;;;4.75;2.00;;;;;31.64;24.59;101772.94;5035317;28;45332;-77
2023/06/27 11:12:15;;;;;;;;;6.50;3.25;;;;;31.49;25.58;101772.81;5035094;28;45488;-75
2023/06/27 11:14:43;;;;;;;;;7.00;3.00;;;;;31.66;25.84;101769.97;5035444;28;45513;-74
2023/06/27 11:17:10;;;;;;;;;3.75;3.00;;;;;31.83;26.25;101766.91;5035311;28;45456;-76
2023/06/27 11:19:38;;;;;;;;;4.50;2.00;;;;;31.97;26.20;101759.69;5034982;28;45351;-74
2023/06/27 11:22:04;;;;;;;;;2.50;1.75;;;;;32.13;25.58;101761.47;5036105;28;45389;-75
2023/06/27 11:24:29;;;;;;;;;1.75;1.75;;;;;32.25;26.03;101751.66;5035544;28;45508;-74
2023/06/27 11:26:56;;;;;;;;;2.75;2.75;;;;;32.26;25.39;101753.38;5035676;28;45336;-74
2023/06/27 11:29:22;;;;;;;;;6.25;2.50;;;;;32.01;25.42;101757.41;5035526;28;45261;-76
2023/06/27 11:31:48;;;;;;;;;5.25;2.75;;;;;32.17;25.89;101754.50;5041987;28;45435;-75
2023/06/27 11:34:14;;;;;;;;;3.75;3.75;;;;;32.06;26.01;101735.53;5055405;28;45485;-76
2023/06/27 11:36:41;;;;;;;;;1.00;1.00;;;;;32.37;25.88;101744.63;5041529;28;47420;-77
2023/06/27 11:39:09;;;;;;;;;3.00;1.75;;;;;32.52;25.94;101762.16;5055230;28;45367;-74
2023/06/27 11:41:41;;;;;;;;;3.75;1.75;;;;;32.13;24.97;101755.91;5055705;28;45318;-76
2023/06/27 11:44:09;;;;;;;;;1.00;1.00;;;;;32.00;25.66;101753.75;5054876;28;45534;-73
2023/06/27 11:46:35;;;;;;;;;2.75;2.00;;;;;32.02;25.18;101750.81;5054904;28;45508;-75
2023/06/27 11:49:01;;;;;;;;;4.75;3.00;;;;;32.01;24.79;101747.16;5054640;28;45396;-75
2023/06/27 11:51:37;;;;;;;;;1.75;1.75;;;;;32.21;24.91;101742.88;5055128;28;45475;-75
2023/06/27 11:54:06;;;;;;;;;1.25;1.25;;;;;32.18;24.61;101736.81;5054915;28;45324;-74
2023/06/27 11:56:32;;;;;;;;;3.75;2.00;;;;;32.33;24.68;101724.69;5033319;28;46250;-77
2023/06/27 11:58:59;;;;;;;;;1.25;0.00;;;;;32.48;23.50;101724.75;5051187;28;45411;-74
2023/06/27 12:01:26;;;;;;;;;1.00;1.00;;;;;32.30;23.90;101727.00;5055104;28;45363;-76
2023/06/27 12:03:52;;;;;;;;;2.00;2.00;;;;;32.41;23.80;101718.19;5054305;28;45524;-75
2023/06/27 12:06:24;;;;;;;;;4.00;2.50;;;;;32.51;23.66;101729.88;5054652;28;51806;-73
2023/06/27 12:08:50;;;;;;;;;3.00;3.00;;;;;32.55;24.01;101722.91;5054549;28;45395;-76
2023/06/27 12:11:16;;;;;;;;;2.75;1.00;;;;;32.65;23.56;101730.97;5054783;28;45396;-75
2023/06/27 12:13:42;;;;;;;;;1.00;1.00;;;;;32.75;23.72;101737.09;5054521;28;45241;-73
2023/06/27 12:16:29;;;;;;;;;2.75;2.75;;;;;32.86;24.02;101724.66;5054745;28;45612;-76
2023/06/27 12:19:07;;;;;;;;;1.75;1.75;;;;;32.82;23.67;101724.19;5040778;28;45449;-76
2023/06/27 12:21:33;;;;;;;;;3.00;3.00;;;;;33.03;23.58;101713.16;5054424;28;45533;-75
2023/06/27 12:23:59;;;;;;;;;2.75;2.00;;;;;33.06;23.44;101710.00;5054393;28;45519;-74
2023/06/27 12:26:25;;;;;;;;;4.00;3.00;;;;;33.15;22.92;101713.53;5054266;28;46314;-75
2023/06/27 12:28:55;;;;;;;;;3.00;2.00;;;;;33.10;23.27;101713.22;5054527;28;45351;-74
2023/06/27 12:31:20;;;;;;;;;5.25;3.75;;;;;33.36;23.57;101708.03;5054145;28;45465;-76
2023/06/27 12:33:46;;;;;;;;;1.50;1.50;;;;;33.41;22.64;101708.31;5054079;28;45348;-75
2023/06/27 12:36:14;;;;;;;;;3.25;3.00;;;;;33.49;23.13;101710.09;5054045;28;47374;-75
2023/06/27 12:38:39;;;;;;;;;4.00;3.00;;;;;33.47;22.70;101700.22;5054531;28;45426;-74
2023/06/27 12:41:05;;;;;;;;;3.75;2.00;;;;;33.47;22.68;101689.09;5054515;28;45303;-76
2023/06/27 12:43:30;;;;;;;;;2.75;1.50;;;;;33.64;23.42;101694.22;5053948;28;45204;-73
2023/06/27 12:46:02;;;;;;;;;3.25;1.50;;;;;33.97;22.27;101682.56;5054146;28;45271;-76
2023/06/27 12:48:28;;;;;;;;;3.00;3.00;;;;;34.25;21.76;101690.97;5053985;28;45406;-75
2023/06/27 12:50:53;;;;;;;;;2.25;2.25;;;;;34.26;22.05;101685.19;5054104;28;45380;-75
2023/06/27 12:53:18;;;;;;;;;2.75;2.25;;;;;34.53;22.37;101681.53;5034471;28;45523;-77
2023/06/27 12:55:44;;;;;;;;;1.25;1.25;;;;;34.62;21.39;101673.00;5053844;28;46000;-75
2023/06/27 12:58:10;;;;;;;;;2.00;1.00;;;;;34.53;21.51;101675.97;5054074;28;47014;-75
2023/06/27 13:00:37;;;;;;;;;3.00;1.50;;;;;34.34;21.82;101681.41;5054324;28;45453;-74
2023/06/27 13:03:06;;;;;;;;;4.00;2.75;;;;;34.33;21.64;101680.53;5054032;28;45459;-76
2023/06/27 13:05:32;;;;;;;;;4.00;2.75;;;;;34.42;21.03;101668.19;5053470;28;45266;-74
2023/06/27 13:07:58;;;;;;;;;3.00;3.00;;;;;34.53;21.90;101664.81;5053892;28;45234;-75
2023/06/27 13:10:26;;;;;;;;;1.75;1.75;;;;;34.70;21.97;101659.78;5053752;28;45363;-75
2023/06/27 13:12:52;;;;;;;;;2.00;2.00;;;;;35.00;21.92;101662.28;5053690;28;45922;-75
2023/06/27 13:15:18;;;;;;;;;4.50;3.00;;;;;35.06;21.04;101670.66;5035602;28;47832;-76
2023/06/27 13:17:45;;;;;;;;;2.00;2.00;;;;;34.78;20.14;101673.56;5039146;28;45318;-76
2023/06/27 13:20:11;;;;;;;;;2.75;1.50;;;;;34.57;20.42;101648.53;5057081;28;45379;-75
2023/06/27 13:22:37;;;;;;;;;3.25;1.25;;;;;34.42;20.85;101648.69;5057303;28;45424;-74
2023/06/27 13:25:04;;;;;;;;;3.50;2.00;;;;;34.62;21.10;101654.38;5056907;28;47149;-75
2023/06/27 13:27:29;;;;;;;;;5.50;1.75;;;;;35.01;21.02;101648.16;5057318;28;45234;-75
2023/06/27 13:29:55;;;;;;;;;1.75;1.75;;;;;35.31;20.86;101645.03;5057090;28;45557;-75
2023/06/27 13:32:21;;;;;;;;;2.75;2.25;;;;;35.50;21.24;101647.88;5056794;28;45517;-74
2023/06/27 13:34:47;;;;;;;;;4.25;2.00;;;;;35.64;20.48;101657.13;5056545;28;46043;-75
2023/06/27 13:37:12;;;;;;;;;3.75;3.25;;;;;35.73;20.87;101646.66;5038920;28;45343;-79
2023/06/27 13:39:37;;;;;;;;;3.00;3.00;;;;;36.06;20.98;101646.63;5057017;28;45523;-75
2023/06/27 13:42:03;;;;;;;;;4.00;2.25;;;;;36.35;20.38;101651.78;5056952;28;50714;-76
2023/06/27 13:44:28;;;;;;;;;2.00;2.00;;;;;36.06;19.37;101647.50;5056688;28;45434;-75
2023/06/27 13:46:54;;;;;;;;;2.50;2.00;;;;;36.05;20.04;101648.56;5056806;28;51766;-76
2023/06/27 13:49:19;;;;;;;;;1.00;1.00;;;;;36.32;19.85;101653.09;5056887;28;45287;-75
2023/06/27 13:51:44;;;;;;;;;2.00;2.00;;;;;36.56;19.49;101640.34;5056854;28;45373;-75
2023/06/27 13:54:10;;;;;;;;;2.00;2.00;;;;;36.79;19.54;101634.25;5056672;28;45337;-75
2023/06/27 13:56:35;;;;;;;;;4.00;2.00;;;;;36.64;19.06;101639.22;5057029;28;45332;-75
2023/06/27 13:59:00;;;;;;;;;0.75;0.75;;;;;36.58;19.63;101649.34;5056847;28;45304;-76
2023/06/27 14:01:26;;;;;;;;;6.25;2.00;;;;;36.73;18.89;101626.78;5056626;28;45440;-74
2023/06/27 14:03:52;;;;;;;;;1.00;1.00;;;;;36.94;19.28;101623.66;5037641;28;46224;-76
2023/06/27 14:06:18;;;;;;;;;2.75;2.75;;;;;36.92;19.10;101595.06;5056606;28;45332;-75
2023/06/27 14:08:44;;;;;;;;;2.00;2.00;;;;;36.88;18.78;101626.47;5056711;28;45526;-77
2023/06/27 14:11:13;;;;;;;;;1.00;1.00;;;;;36.62;19.07;101622.69;5038156;28;46248;-75
2023/06/27 14:13:43;;;;;;;;;4.75;4.75;;;;;36.67;19.91;101620.09;5056527;28;45322;-77
2023/06/27 14:16:08;;;;;;;;;3.75;2.75;;;;;36.92;19.38;101614.63;5056478;28;45357;-76
2023/06/27 14:18:35;;;;;;;;;3.50;2.00;;;;;37.19;19.09;101622.88;5038111;28;45335;-76
2023/06/27 14:21:07;;;;;;;;;2.00;2.00;;;;;37.43;19.50;101616.50;5034875;28;47208;-75
2023/06/27 14:23:33;;;;;;;;;0.00;0.00;;;;;37.57;19.55;101608.88;5055921;28;45987;-77
2023/06/27 14:25:58;;;;;;;;;2.00;1.00;;;;;37.75;18.56;101608.97;5056334;28;45287;-77
2023/06/27 14:28:23;;;;;;;;;3.00;3.00;;;;;37.90;18.75;101597.41;5054984;28;45400;-75
2023/06/27 14:30:49;;;;;;;;;3.00;1.00;;;;;38.07;18.46;101596.63;5056069;28;46525;-75
2023/06/27 14:33:20;;;;;;;;;2.00;2.00;;;;;38.03;18.78;101592.53;5055857;28;45907;-76
2023/06/27 14:35:46;;;;;;;;;2.50;2.25;;;;;38.10;18.33;101595.31;5056517;28;45366;-76
2023/06/27 14:38:11;;;;;;;;;4.00;2.00;;;;;37.98;18.25;101594.31;5056024;28;45296;-75
2023/06/27 14:40:36;;;;;;;;;3.50;1.75;;;;;38.00;18.48;101590.22;5056341;28;45636;-77
2023/06/27 14:43:03;;;;;;;;;2.00;2.00;;;;;38.01;17.98;101591.06;5055394;28;50576;-73
2023/06/27 14:45:28;;;;;;;;;2.00;2.00;;;;;37.88;18.50;101594.84;5056007;28;45398;-76
2023/06/27 14:47:54;;;;;;;;;0.25;0.25;;;;;37.27;18.21;101600.25;5055917;28;45466;-77
2023/06/27 14:50:19;;;;;;;;;3.00;1.00;;;;;36.95;18.34;101590.97;5055676;28;46205;-77
2023/06/27 14:52:45;;;;;;;;;2.75;2.75;;;;;37.19;18.43;101587.41;5055357;28;45560;-74
2023/06/27 14:55:10;;;;;;;;;1.00;1.00;;;;;37.47;18.71;101579.44;5055911;28;45338;-74
2023/06/27 14:57:36;;;;;;;;;2.00;2.00;;;;;37.48;18.21;101581.16;5055932;28;45562;-76
2023/06/27 15:00:02;;;;;;;;;2.25;0.75;;;;;37.57;18.67;101592.94;5056062;28;45568;-77
2023/06/27 15:02:27;;;;;;;;;2.00;2.00;;;;;37.66;18.58;101583.22;5055336;28;47069;-73
2023/06/27 15:04:53;;;;;;;;;3.00;2.00;;;;;37.64;17.88;101576.97;5055673;28;45403;-75
2023/06/27 15:07:18;;;;;;;;;3.00;3.00;;;;;37.64;18.43;101581.72;5055587;28;45459;-75
2023/06/27 15:09:44;;;;;;;;;2.00;1.25;;;;;37.86;18.03;101569.88;5055924;28;45316;-76
2023/06/27 15:12:09;;;;;;;;;2.50;2.00;;;;;37.89;18.05;101576.97;5055621;28;46244;-77
2023/06/27 15:14:34;;;;;;;;;2.00;2.00;;;;;37.78;17.91;101586.09;5055741;28;45359;-77
2023/06/27 15:17:00;;;;;;;;;2.25;1.50;;;;;37.56;17.98;101581.97;5055504;28;45570;-75
2023/06/27 15:19:25;;;;;;;;;4.25;2.25;;;;;37.47;18.10;101578.59;5055130;28;45510;-78
2023/06/27 15:21:50;;;;;;;;;2.00;2.00;;;;;37.63;17.95;101583.66;5055355;28;45315;-75
2023/06/27 15:24:16;;;;;;;;;2.00;2.00;;;;;37.58;17.67;101577.00;5055180;28;45302;-78
2023/06/27 15:26:42;;;;;;;;;4.25;2.00;;;;;37.83;17.90;101572.28;5055387;28;47098;-78
2023/06/27 15:29:07;;;;;;;;;4.00;2.75;;;;;37.86;17.86;101561.47;5055191;28;45360;-76
2023/06/27 15:31:33;;;;;;;;;5.75;2.50;;;;;37.86;17.40;101563.41;5054553;28;45398;-75
2023/06/27 15:33:58;;;;;;;;;1.75;1.25;;;;;38.05;17.41;101556.78;5055015;28;45302;-76
2023/06/27 15:36:24;;;;;;;;;2.00;2.00;;;;;38.26;18.17;101549.88;5055323;28;45335;-77
2023/06/27 15:38:49;;;;;;;;;2.50;1.25;;;;;38.54;17.39;101554.94;5054756;28;45612;-78
2023/06/27 15:41:14;;;;;;;;;3.75;3.00;;;;;38.90;17.40;101542.81;5054752;28;48876;-76
2023/06/27 15:43:42;;;;;;;;;4.25;2.00;;;;;39.28;16.57;101542.47;5041113;28;45288;-77
2023/06/27 15:46:07;;;;;;;;;4.00;2.00;;;;;39.62;16.69;101540.84;5036938;28;45470;-79
2023/06/27 15:48:32;;;;;;;;;1.25;1.25;;;;;39.69;17.13;101547.19;5047149;28;45252;-79
2023/06/27 15:51:00;;;;;;;;;1.00;1.00;;;;;39.83;16.21;101531.81;5046500;28;45437;-80